<?xml version="1.0" encoding="UTF-8" standalone="no" ?>
<gpx xmlns="http://www.topografix.com/GPX/1/1" xmlns:xsi="http://www.w3.org/2001/XMLSchema-instance" xsi:schemaLocation="http://www.topografix.com/GPX/1/1 http://www.topografix.com/GPX/1/1/gpx.xsd" version="1.1" creator="VisuGPX - https://www.visugpx.com">
  <metadata>
    <name>OMS CHENOVE Marche du vendredi 27 janvier 2012</name>
    <desc><![CDATA[Les Hauts du Lac: Talant, Plombières...]]></desc>
  </metadata>
  <trk>
    <name><![CDATA[OMS CHENOVE Marche du vendredi 27 janvier 2012_1]]></name>
    <trkseg>
      <trkpt lat="47.3297" lon="4.99825">
        <ele>215.785</ele>
        <time>2012-01-27T09:17:34Z</time>
      </trkpt>
      <trkpt lat="47.32973" lon="4.99863">
        <ele>243.374</ele>
        <time>2012-01-27T09:17:45Z</time>
      </trkpt>
      <trkpt lat="47.32975" lon="4.9988">
        <ele>242.725</ele>
        <time>2012-01-27T09:17:56Z</time>
      </trkpt>
      <trkpt lat="47.3298" lon="4.99907">
        <ele>253.058</ele>
        <time>2012-01-27T09:18:07Z</time>
      </trkpt>
      <trkpt lat="47.32988" lon="4.99917">
        <ele>256.944</ele>
        <time>2012-01-27T09:18:18Z</time>
      </trkpt>
      <trkpt lat="47.32988" lon="4.9992">
        <ele>255.782</ele>
        <time>2012-01-27T09:18:29Z</time>
      </trkpt>
      <trkpt lat="47.32998" lon="4.99928">
        <ele>257.009</ele>
        <time>2012-01-27T09:18:40Z</time>
      </trkpt>
      <trkpt lat="47.3301" lon="4.99918">
        <ele>253.714</ele>
        <time>2012-01-27T09:18:51Z</time>
      </trkpt>
      <trkpt lat="47.33015" lon="4.99922">
        <ele>253.755</ele>
        <time>2012-01-27T09:19:02Z</time>
      </trkpt>
      <trkpt lat="47.33015" lon="4.99925">
        <ele>256.264</ele>
        <time>2012-01-27T09:19:13Z</time>
      </trkpt>
      <trkpt lat="47.33013" lon="4.99935">
        <ele>259.026</ele>
        <time>2012-01-27T09:19:24Z</time>
      </trkpt>
      <trkpt lat="47.33012" lon="4.99943">
        <ele>262.3</ele>
        <time>2012-01-27T09:19:35Z</time>
      </trkpt>
      <trkpt lat="47.33012" lon="4.99952">
        <ele>265.062</ele>
        <time>2012-01-27T09:19:46Z</time>
      </trkpt>
      <trkpt lat="47.33012" lon="4.99965">
        <ele>266.517</ele>
        <time>2012-01-27T09:19:57Z</time>
      </trkpt>
      <trkpt lat="47.33013" lon="4.99977">
        <ele>268.532</ele>
        <time>2012-01-27T09:20:08Z</time>
      </trkpt>
      <trkpt lat="47.33017" lon="4.99997">
        <ele>268.449</ele>
        <time>2012-01-27T09:20:19Z</time>
      </trkpt>
      <trkpt lat="47.33018" lon="5.00015">
        <ele>268.836</ele>
        <time>2012-01-27T09:20:30Z</time>
      </trkpt>
      <trkpt lat="47.3302" lon="5.00032">
        <ele>270.209</ele>
        <time>2012-01-27T09:20:41Z</time>
      </trkpt>
      <trkpt lat="47.3302" lon="5.0005">
        <ele>271.556</ele>
        <time>2012-01-27T09:20:52Z</time>
      </trkpt>
      <trkpt lat="47.33022" lon="5.00065">
        <ele>273.607</ele>
        <time>2012-01-27T09:21:03Z</time>
      </trkpt>
      <trkpt lat="47.33022" lon="5.00078">
        <ele>276.608</ele>
        <time>2012-01-27T09:21:14Z</time>
      </trkpt>
      <trkpt lat="47.33022" lon="5.00087">
        <ele>277.14</ele>
        <time>2012-01-27T09:21:25Z</time>
      </trkpt>
      <trkpt lat="47.33023" lon="5.00105">
        <ele>275.455</ele>
        <time>2012-01-27T09:21:36Z</time>
      </trkpt>
      <trkpt lat="47.33023" lon="5.00125">
        <ele>275.509</ele>
        <time>2012-01-27T09:21:47Z</time>
      </trkpt>
      <trkpt lat="47.33027" lon="5.0014">
        <ele>278.178</ele>
        <time>2012-01-27T09:21:58Z</time>
      </trkpt>
      <trkpt lat="47.3303" lon="5.00143">
        <ele>278.564</ele>
        <time>2012-01-27T09:22:09Z</time>
      </trkpt>
      <trkpt lat="47.33037" lon="5.00135">
        <ele>278.754</ele>
        <time>2012-01-27T09:22:20Z</time>
      </trkpt>
      <trkpt lat="47.3304" lon="5.00135">
        <ele>280.008</ele>
        <time>2012-01-27T09:22:31Z</time>
      </trkpt>
      <trkpt lat="47.33047" lon="5.00127">
        <ele>281.316</ele>
        <time>2012-01-27T09:22:42Z</time>
      </trkpt>
      <trkpt lat="47.33048" lon="5.00125">
        <ele>282.139</ele>
        <time>2012-01-27T09:22:53Z</time>
      </trkpt>
      <trkpt lat="47.33053" lon="5.00123">
        <ele>283.616</ele>
        <time>2012-01-27T09:23:04Z</time>
      </trkpt>
      <trkpt lat="47.33053" lon="5.00123">
        <ele>283.438</ele>
        <time>2012-01-27T09:23:15Z</time>
      </trkpt>
      <trkpt lat="47.33052" lon="5.00123">
        <ele>284.325</ele>
        <time>2012-01-27T09:23:26Z</time>
      </trkpt>
      <trkpt lat="47.33052" lon="5.00123">
        <ele>284.325</ele>
        <time>2012-01-27T09:23:37Z</time>
      </trkpt>
      <trkpt lat="47.33053" lon="5.00123">
        <ele>284.056</ele>
        <time>2012-01-27T09:23:48Z</time>
      </trkpt>
      <trkpt lat="47.3306" lon="5.00118">
        <ele>285.363</ele>
        <time>2012-01-27T09:23:59Z</time>
      </trkpt>
      <trkpt lat="47.33065" lon="5.00115">
        <ele>285.544</ele>
        <time>2012-01-27T09:24:10Z</time>
      </trkpt>
      <trkpt lat="47.33073" lon="5.00113">
        <ele>286.308</ele>
        <time>2012-01-27T09:24:21Z</time>
      </trkpt>
      <trkpt lat="47.33077" lon="5.00125">
        <ele>287.81</ele>
        <time>2012-01-27T09:24:32Z</time>
      </trkpt>
      <trkpt lat="47.33077" lon="5.00142">
        <ele>291.059</ele>
        <time>2012-01-27T09:24:43Z</time>
      </trkpt>
      <trkpt lat="47.33072" lon="5.00158">
        <ele>292.276</ele>
        <time>2012-01-27T09:24:54Z</time>
      </trkpt>
      <trkpt lat="47.33062" lon="5.00175">
        <ele>294.506</ele>
        <time>2012-01-27T09:25:05Z</time>
      </trkpt>
      <trkpt lat="47.33058" lon="5.00185">
        <ele>295.318</ele>
        <time>2012-01-27T09:25:16Z</time>
      </trkpt>
      <trkpt lat="47.33053" lon="5.002">
        <ele>297.086</ele>
        <time>2012-01-27T09:25:27Z</time>
      </trkpt>
      <trkpt lat="47.3305" lon="5.00222">
        <ele>297.22</ele>
        <time>2012-01-27T09:25:38Z</time>
      </trkpt>
      <trkpt lat="47.33043" lon="5.00247">
        <ele>300.356</ele>
        <time>2012-01-27T09:25:49Z</time>
      </trkpt>
      <trkpt lat="47.3304" lon="5.0027">
        <ele>300.199</ele>
        <time>2012-01-27T09:26:00Z</time>
      </trkpt>
      <trkpt lat="47.33032" lon="5.0029">
        <ele>296.869</ele>
        <time>2012-01-27T09:26:11Z</time>
      </trkpt>
      <trkpt lat="47.33028" lon="5.00305">
        <ele>299.036</ele>
        <time>2012-01-27T09:26:22Z</time>
      </trkpt>
      <trkpt lat="47.33023" lon="5.00308">
        <ele>299.665</ele>
        <time>2012-01-27T09:26:33Z</time>
      </trkpt>
      <trkpt lat="47.3302" lon="5.00322">
        <ele>300.345</ele>
        <time>2012-01-27T09:26:44Z</time>
      </trkpt>
      <trkpt lat="47.33027" lon="5.0033">
        <ele>299.901</ele>
        <time>2012-01-27T09:26:55Z</time>
      </trkpt>
      <trkpt lat="47.3303" lon="5.00338">
        <ele>302.279</ele>
        <time>2012-01-27T09:27:06Z</time>
      </trkpt>
      <trkpt lat="47.33038" lon="5.00352">
        <ele>302.331</ele>
        <time>2012-01-27T09:27:17Z</time>
      </trkpt>
      <trkpt lat="47.33042" lon="5.00372">
        <ele>303.608</ele>
        <time>2012-01-27T09:27:28Z</time>
      </trkpt>
      <trkpt lat="47.33048" lon="5.00385">
        <ele>305.625</ele>
        <time>2012-01-27T09:27:39Z</time>
      </trkpt>
      <trkpt lat="47.3305" lon="5.00398">
        <ele>304.773</ele>
        <time>2012-01-27T09:27:50Z</time>
      </trkpt>
      <trkpt lat="47.3305" lon="5.00418">
        <ele>304.004</ele>
        <time>2012-01-27T09:28:01Z</time>
      </trkpt>
      <trkpt lat="47.33053" lon="5.00442">
        <ele>304.277</ele>
        <time>2012-01-27T09:28:12Z</time>
      </trkpt>
      <trkpt lat="47.3306" lon="5.00462">
        <ele>303.907</ele>
        <time>2012-01-27T09:28:23Z</time>
      </trkpt>
      <trkpt lat="47.33068" lon="5.00465">
        <ele>304.944</ele>
        <time>2012-01-27T09:28:34Z</time>
      </trkpt>
      <trkpt lat="47.33077" lon="5.00452">
        <ele>305.844</ele>
        <time>2012-01-27T09:28:45Z</time>
      </trkpt>
      <trkpt lat="47.3308" lon="5.00437">
        <ele>306.873</ele>
        <time>2012-01-27T09:28:56Z</time>
      </trkpt>
      <trkpt lat="47.33087" lon="5.00423">
        <ele>306.723</ele>
        <time>2012-01-27T09:29:07Z</time>
      </trkpt>
      <trkpt lat="47.33093" lon="5.00407">
        <ele>307.597</ele>
        <time>2012-01-27T09:29:18Z</time>
      </trkpt>
      <trkpt lat="47.33097" lon="5.004">
        <ele>307.138</ele>
        <time>2012-01-27T09:29:29Z</time>
      </trkpt>
      <trkpt lat="47.33108" lon="5.00385">
        <ele>307.11</ele>
        <time>2012-01-27T09:29:40Z</time>
      </trkpt>
      <trkpt lat="47.33118" lon="5.00367">
        <ele>308.227</ele>
        <time>2012-01-27T09:29:51Z</time>
      </trkpt>
      <trkpt lat="47.33123" lon="5.00347">
        <ele>309.046</ele>
        <time>2012-01-27T09:30:02Z</time>
      </trkpt>
      <trkpt lat="47.33127" lon="5.00342">
        <ele>310.598</ele>
        <time>2012-01-27T09:30:13Z</time>
      </trkpt>
      <trkpt lat="47.33135" lon="5.00318">
        <ele>310.815</ele>
        <time>2012-01-27T09:30:24Z</time>
      </trkpt>
      <trkpt lat="47.3314" lon="5.00298">
        <ele>311.025</ele>
        <time>2012-01-27T09:30:35Z</time>
      </trkpt>
      <trkpt lat="47.33145" lon="5.00275">
        <ele>312.77</ele>
        <time>2012-01-27T09:30:46Z</time>
      </trkpt>
      <trkpt lat="47.33157" lon="5.0026">
        <ele>313.633</ele>
        <time>2012-01-27T09:30:57Z</time>
      </trkpt>
      <trkpt lat="47.33168" lon="5.00262">
        <ele>313.26</ele>
        <time>2012-01-27T09:31:08Z</time>
      </trkpt>
      <trkpt lat="47.33178" lon="5.00248">
        <ele>310.895</ele>
        <time>2012-01-27T09:31:19Z</time>
      </trkpt>
      <trkpt lat="47.33178" lon="5.00227">
        <ele>310</ele>
        <time>2012-01-27T09:31:30Z</time>
      </trkpt>
      <trkpt lat="47.33185" lon="5.00207">
        <ele>310.416</ele>
        <time>2012-01-27T09:31:41Z</time>
      </trkpt>
      <trkpt lat="47.332" lon="5.00202">
        <ele>310.025</ele>
        <time>2012-01-27T09:31:52Z</time>
      </trkpt>
      <trkpt lat="47.33213" lon="5.0021">
        <ele>308.293</ele>
        <time>2012-01-27T09:32:03Z</time>
      </trkpt>
      <trkpt lat="47.33227" lon="5.00218">
        <ele>307.128</ele>
        <time>2012-01-27T09:32:14Z</time>
      </trkpt>
      <trkpt lat="47.33242" lon="5.00218">
        <ele>306.083</ele>
        <time>2012-01-27T09:32:25Z</time>
      </trkpt>
      <trkpt lat="47.33255" lon="5.00217">
        <ele>305.462</ele>
        <time>2012-01-27T09:32:36Z</time>
      </trkpt>
      <trkpt lat="47.33258" lon="5.00222">
        <ele>305.776</ele>
        <time>2012-01-27T09:32:47Z</time>
      </trkpt>
      <trkpt lat="47.33262" lon="5.00223">
        <ele>307.013</ele>
        <time>2012-01-27T09:32:58Z</time>
      </trkpt>
      <trkpt lat="47.33272" lon="5.0023">
        <ele>307.439</ele>
        <time>2012-01-27T09:33:09Z</time>
      </trkpt>
      <trkpt lat="47.33277" lon="5.00233">
        <ele>307.23</ele>
        <time>2012-01-27T09:33:20Z</time>
      </trkpt>
      <trkpt lat="47.33288" lon="5.00245">
        <ele>307.06</ele>
        <time>2012-01-27T09:33:31Z</time>
      </trkpt>
      <trkpt lat="47.33303" lon="5.00257">
        <ele>309.639</ele>
        <time>2012-01-27T09:33:42Z</time>
      </trkpt>
      <trkpt lat="47.33315" lon="5.0026">
        <ele>311.328</ele>
        <time>2012-01-27T09:33:53Z</time>
      </trkpt>
      <trkpt lat="47.33328" lon="5.0027">
        <ele>312.428</ele>
        <time>2012-01-27T09:34:04Z</time>
      </trkpt>
      <trkpt lat="47.33337" lon="5.00278">
        <ele>315.625</ele>
        <time>2012-01-27T09:34:15Z</time>
      </trkpt>
      <trkpt lat="47.33343" lon="5.00283">
        <ele>316.714</ele>
        <time>2012-01-27T09:34:26Z</time>
      </trkpt>
      <trkpt lat="47.3335" lon="5.00292">
        <ele>317.116</ele>
        <time>2012-01-27T09:34:37Z</time>
      </trkpt>
      <trkpt lat="47.33352" lon="5.00292">
        <ele>318.034</ele>
        <time>2012-01-27T09:34:48Z</time>
      </trkpt>
      <trkpt lat="47.33357" lon="5.00297">
        <ele>319.046</ele>
        <time>2012-01-27T09:34:59Z</time>
      </trkpt>
      <trkpt lat="47.33367" lon="5.00303">
        <ele>320.609</ele>
        <time>2012-01-27T09:35:10Z</time>
      </trkpt>
      <trkpt lat="47.3337" lon="5.00305">
        <ele>321.791</ele>
        <time>2012-01-27T09:35:21Z</time>
      </trkpt>
      <trkpt lat="47.33375" lon="5.00307">
        <ele>322.317</ele>
        <time>2012-01-27T09:35:32Z</time>
      </trkpt>
      <trkpt lat="47.33378" lon="5.0031">
        <ele>322.689</ele>
        <time>2012-01-27T09:35:43Z</time>
      </trkpt>
      <trkpt lat="47.33382" lon="5.0031">
        <ele>322.873</ele>
        <time>2012-01-27T09:35:54Z</time>
      </trkpt>
      <trkpt lat="47.33382" lon="5.00312">
        <ele>323.209</ele>
        <time>2012-01-27T09:36:05Z</time>
      </trkpt>
      <trkpt lat="47.33383" lon="5.00315">
        <ele>325.155</ele>
        <time>2012-01-27T09:36:16Z</time>
      </trkpt>
      <trkpt lat="47.33387" lon="5.00318">
        <ele>326.183</ele>
        <time>2012-01-27T09:36:27Z</time>
      </trkpt>
      <trkpt lat="47.33392" lon="5.00327">
        <ele>327.718</ele>
        <time>2012-01-27T09:36:38Z</time>
      </trkpt>
      <trkpt lat="47.33395" lon="5.00337">
        <ele>329.429</ele>
        <time>2012-01-27T09:36:49Z</time>
      </trkpt>
      <trkpt lat="47.334" lon="5.00355">
        <ele>326.783</ele>
        <time>2012-01-27T09:37:00Z</time>
      </trkpt>
      <trkpt lat="47.33402" lon="5.00367">
        <ele>325.558</ele>
        <time>2012-01-27T09:37:11Z</time>
      </trkpt>
      <trkpt lat="47.33402" lon="5.00368">
        <ele>325.829</ele>
        <time>2012-01-27T09:37:22Z</time>
      </trkpt>
      <trkpt lat="47.33402" lon="5.00375">
        <ele>327.61</ele>
        <time>2012-01-27T09:37:33Z</time>
      </trkpt>
      <trkpt lat="47.33402" lon="5.00377">
        <ele>328.633</ele>
        <time>2012-01-27T09:37:44Z</time>
      </trkpt>
      <trkpt lat="47.33402" lon="5.00377">
        <ele>328.633</ele>
        <time>2012-01-27T09:37:55Z</time>
      </trkpt>
      <trkpt lat="47.33402" lon="5.00377">
        <ele>328.491</ele>
        <time>2012-01-27T09:38:06Z</time>
      </trkpt>
      <trkpt lat="47.33402" lon="5.00377">
        <ele>328.89</ele>
        <time>2012-01-27T09:38:17Z</time>
      </trkpt>
      <trkpt lat="47.33402" lon="5.00377">
        <ele>328.89</ele>
        <time>2012-01-27T09:38:28Z</time>
      </trkpt>
      <trkpt lat="47.33402" lon="5.00377">
        <ele>328.903</ele>
        <time>2012-01-27T09:38:39Z</time>
      </trkpt>
      <trkpt lat="47.33402" lon="5.00377">
        <ele>328.903</ele>
        <time>2012-01-27T09:38:50Z</time>
      </trkpt>
      <trkpt lat="47.33402" lon="5.00377">
        <ele>328.903</ele>
        <time>2012-01-27T09:39:01Z</time>
      </trkpt>
      <trkpt lat="47.33402" lon="5.00377">
        <ele>329.186</ele>
        <time>2012-01-27T09:39:12Z</time>
      </trkpt>
      <trkpt lat="47.33402" lon="5.00377">
        <ele>329.186</ele>
        <time>2012-01-27T09:39:23Z</time>
      </trkpt>
      <trkpt lat="47.33402" lon="5.00377">
        <ele>329.186</ele>
        <time>2012-01-27T09:39:34Z</time>
      </trkpt>
      <trkpt lat="47.33405" lon="5.00377">
        <ele>331.657</ele>
        <time>2012-01-27T09:39:45Z</time>
      </trkpt>
      <trkpt lat="47.33417" lon="5.00372">
        <ele>336.366</ele>
        <time>2012-01-27T09:39:56Z</time>
      </trkpt>
      <trkpt lat="47.33428" lon="5.00362">
        <ele>339.584</ele>
        <time>2012-01-27T09:40:07Z</time>
      </trkpt>
      <trkpt lat="47.33433" lon="5.00345">
        <ele>342.5</ele>
        <time>2012-01-27T09:40:18Z</time>
      </trkpt>
      <trkpt lat="47.33438" lon="5.00327">
        <ele>344.904</ele>
        <time>2012-01-27T09:40:29Z</time>
      </trkpt>
      <trkpt lat="47.33443" lon="5.00312">
        <ele>346.669</ele>
        <time>2012-01-27T09:40:40Z</time>
      </trkpt>
      <trkpt lat="47.33452" lon="5.00297">
        <ele>348.414</ele>
        <time>2012-01-27T09:40:51Z</time>
      </trkpt>
      <trkpt lat="47.33463" lon="5.00285">
        <ele>349.643</ele>
        <time>2012-01-27T09:41:02Z</time>
      </trkpt>
      <trkpt lat="47.3347" lon="5.00273">
        <ele>351.65</ele>
        <time>2012-01-27T09:41:13Z</time>
      </trkpt>
      <trkpt lat="47.3348" lon="5.00257">
        <ele>354.491</ele>
        <time>2012-01-27T09:41:24Z</time>
      </trkpt>
      <trkpt lat="47.33492" lon="5.00242">
        <ele>355.768</ele>
        <time>2012-01-27T09:41:35Z</time>
      </trkpt>
      <trkpt lat="47.33498" lon="5.00225">
        <ele>357.554</ele>
        <time>2012-01-27T09:41:46Z</time>
      </trkpt>
      <trkpt lat="47.3351" lon="5.00212">
        <ele>359.036</ele>
        <time>2012-01-27T09:41:57Z</time>
      </trkpt>
      <trkpt lat="47.33525" lon="5.00212">
        <ele>360.202</ele>
        <time>2012-01-27T09:42:08Z</time>
      </trkpt>
      <trkpt lat="47.33537" lon="5.002">
        <ele>360.119</ele>
        <time>2012-01-27T09:42:19Z</time>
      </trkpt>
      <trkpt lat="47.33537" lon="5.00198">
        <ele>360.241</ele>
        <time>2012-01-27T09:42:30Z</time>
      </trkpt>
      <trkpt lat="47.33527" lon="5.00202">
        <ele>361.547</ele>
        <time>2012-01-27T09:42:41Z</time>
      </trkpt>
      <trkpt lat="47.33513" lon="5.00198">
        <ele>362.804</ele>
        <time>2012-01-27T09:42:52Z</time>
      </trkpt>
      <trkpt lat="47.33517" lon="5.00193">
        <ele>362.092</ele>
        <time>2012-01-27T09:43:03Z</time>
      </trkpt>
      <trkpt lat="47.33522" lon="5.00188">
        <ele>361.695</ele>
        <time>2012-01-27T09:43:14Z</time>
      </trkpt>
      <trkpt lat="47.3353" lon="5.00178">
        <ele>360.82</ele>
        <time>2012-01-27T09:43:25Z</time>
      </trkpt>
      <trkpt lat="47.33537" lon="5.00163">
        <ele>360.735</ele>
        <time>2012-01-27T09:43:36Z</time>
      </trkpt>
      <trkpt lat="47.33552" lon="5.00157">
        <ele>358.507</ele>
        <time>2012-01-27T09:43:47Z</time>
      </trkpt>
      <trkpt lat="47.3355" lon="5.00152">
        <ele>358.842</ele>
        <time>2012-01-27T09:43:58Z</time>
      </trkpt>
      <trkpt lat="47.3354" lon="5.0014">
        <ele>359.129</ele>
        <time>2012-01-27T09:44:09Z</time>
      </trkpt>
      <trkpt lat="47.33528" lon="5.0014">
        <ele>356.225</ele>
        <time>2012-01-27T09:44:20Z</time>
      </trkpt>
      <trkpt lat="47.33525" lon="5.0014">
        <ele>356.057</ele>
        <time>2012-01-27T09:44:31Z</time>
      </trkpt>
      <trkpt lat="47.33518" lon="5.00128">
        <ele>356.163</ele>
        <time>2012-01-27T09:44:42Z</time>
      </trkpt>
      <trkpt lat="47.33517" lon="5.0011">
        <ele>352.88</ele>
        <time>2012-01-27T09:44:53Z</time>
      </trkpt>
      <trkpt lat="47.33523" lon="5.0009">
        <ele>346.784</ele>
        <time>2012-01-27T09:45:04Z</time>
      </trkpt>
      <trkpt lat="47.3353" lon="5.00068">
        <ele>344.068</ele>
        <time>2012-01-27T09:45:15Z</time>
      </trkpt>
      <trkpt lat="47.3353" lon="5.00048">
        <ele>341.394</ele>
        <time>2012-01-27T09:45:26Z</time>
      </trkpt>
      <trkpt lat="47.33527" lon="5.0003">
        <ele>338.519</ele>
        <time>2012-01-27T09:45:37Z</time>
      </trkpt>
      <trkpt lat="47.33525" lon="5.00017">
        <ele>335.682</ele>
        <time>2012-01-27T09:45:48Z</time>
      </trkpt>
      <trkpt lat="47.33515" lon="5.00013">
        <ele>334.665</ele>
        <time>2012-01-27T09:45:59Z</time>
      </trkpt>
      <trkpt lat="47.33503" lon="5.0002">
        <ele>333.901</ele>
        <time>2012-01-27T09:46:10Z</time>
      </trkpt>
      <trkpt lat="47.33493" lon="5.00028">
        <ele>333.538</ele>
        <time>2012-01-27T09:46:21Z</time>
      </trkpt>
      <trkpt lat="47.33478" lon="5.00035">
        <ele>332.327</ele>
        <time>2012-01-27T09:46:32Z</time>
      </trkpt>
      <trkpt lat="47.33467" lon="5.00043">
        <ele>332.299</ele>
        <time>2012-01-27T09:46:43Z</time>
      </trkpt>
      <trkpt lat="47.33452" lon="5.00057">
        <ele>331.12</ele>
        <time>2012-01-27T09:46:54Z</time>
      </trkpt>
      <trkpt lat="47.33442" lon="5.0007">
        <ele>330.349</ele>
        <time>2012-01-27T09:47:05Z</time>
      </trkpt>
      <trkpt lat="47.33427" lon="5.00085">
        <ele>329.266</ele>
        <time>2012-01-27T09:47:16Z</time>
      </trkpt>
      <trkpt lat="47.33415" lon="5.00102">
        <ele>327.172</ele>
        <time>2012-01-27T09:47:27Z</time>
      </trkpt>
      <trkpt lat="47.33402" lon="5.00098">
        <ele>324.284</ele>
        <time>2012-01-27T09:47:38Z</time>
      </trkpt>
      <trkpt lat="47.33388" lon="5.00085">
        <ele>323.459</ele>
        <time>2012-01-27T09:47:49Z</time>
      </trkpt>
      <trkpt lat="47.33375" lon="5.00073">
        <ele>323.363</ele>
        <time>2012-01-27T09:48:00Z</time>
      </trkpt>
      <trkpt lat="47.33358" lon="5.00063">
        <ele>322.612</ele>
        <time>2012-01-27T09:48:11Z</time>
      </trkpt>
      <trkpt lat="47.33343" lon="5.00053">
        <ele>320.941</ele>
        <time>2012-01-27T09:48:22Z</time>
      </trkpt>
      <trkpt lat="47.33328" lon="5.00043">
        <ele>321.997</ele>
        <time>2012-01-27T09:48:33Z</time>
      </trkpt>
      <trkpt lat="47.33318" lon="5.00038">
        <ele>320.57</ele>
        <time>2012-01-27T09:48:44Z</time>
      </trkpt>
      <trkpt lat="47.33308" lon="5.0005">
        <ele>320.069</ele>
        <time>2012-01-27T09:48:55Z</time>
      </trkpt>
      <trkpt lat="47.33298" lon="5.00055">
        <ele>318.455</ele>
        <time>2012-01-27T09:49:06Z</time>
      </trkpt>
      <trkpt lat="47.3329" lon="5.00037">
        <ele>318.51</ele>
        <time>2012-01-27T09:49:17Z</time>
      </trkpt>
      <trkpt lat="47.33288" lon="5.00017">
        <ele>318.496</ele>
        <time>2012-01-27T09:49:28Z</time>
      </trkpt>
      <trkpt lat="47.33288" lon="4.99993">
        <ele>316.863</ele>
        <time>2012-01-27T09:49:39Z</time>
      </trkpt>
      <trkpt lat="47.33292" lon="4.99972">
        <ele>315.434</ele>
        <time>2012-01-27T09:49:50Z</time>
      </trkpt>
      <trkpt lat="47.33287" lon="4.99953">
        <ele>312.532</ele>
        <time>2012-01-27T09:50:01Z</time>
      </trkpt>
      <trkpt lat="47.33277" lon="4.99942">
        <ele>310.841</ele>
        <time>2012-01-27T09:50:12Z</time>
      </trkpt>
      <trkpt lat="47.33265" lon="4.99925">
        <ele>310.889</ele>
        <time>2012-01-27T09:50:23Z</time>
      </trkpt>
      <trkpt lat="47.33258" lon="4.99903">
        <ele>308.023</ele>
        <time>2012-01-27T09:50:34Z</time>
      </trkpt>
      <trkpt lat="47.33262" lon="4.9988">
        <ele>306.877</ele>
        <time>2012-01-27T09:50:45Z</time>
      </trkpt>
      <trkpt lat="47.33265" lon="4.99857">
        <ele>307.519</ele>
        <time>2012-01-27T09:50:56Z</time>
      </trkpt>
      <trkpt lat="47.33268" lon="4.99835">
        <ele>307.772</ele>
        <time>2012-01-27T09:51:07Z</time>
      </trkpt>
      <trkpt lat="47.33268" lon="4.99812">
        <ele>306.855</ele>
        <time>2012-01-27T09:51:18Z</time>
      </trkpt>
      <trkpt lat="47.33262" lon="4.9979">
        <ele>305.174</ele>
        <time>2012-01-27T09:51:29Z</time>
      </trkpt>
      <trkpt lat="47.3326" lon="4.99768">
        <ele>303.152</ele>
        <time>2012-01-27T09:51:40Z</time>
      </trkpt>
      <trkpt lat="47.33263" lon="4.99743">
        <ele>302.147</ele>
        <time>2012-01-27T09:51:51Z</time>
      </trkpt>
      <trkpt lat="47.3327" lon="4.99722">
        <ele>300.795</ele>
        <time>2012-01-27T09:52:02Z</time>
      </trkpt>
      <trkpt lat="47.3328" lon="4.99702">
        <ele>301.957</ele>
        <time>2012-01-27T09:52:13Z</time>
      </trkpt>
      <trkpt lat="47.33293" lon="4.9969">
        <ele>303.137</ele>
        <time>2012-01-27T09:52:24Z</time>
      </trkpt>
      <trkpt lat="47.33308" lon="4.99685">
        <ele>302.948</ele>
        <time>2012-01-27T09:52:35Z</time>
      </trkpt>
      <trkpt lat="47.33323" lon="4.99682">
        <ele>302.535</ele>
        <time>2012-01-27T09:52:46Z</time>
      </trkpt>
      <trkpt lat="47.33338" lon="4.99682">
        <ele>301.562</ele>
        <time>2012-01-27T09:52:57Z</time>
      </trkpt>
      <trkpt lat="47.33355" lon="4.99682">
        <ele>301</ele>
        <time>2012-01-27T09:53:08Z</time>
      </trkpt>
      <trkpt lat="47.33372" lon="4.99685">
        <ele>301.817</ele>
        <time>2012-01-27T09:53:19Z</time>
      </trkpt>
      <trkpt lat="47.33387" lon="4.99688">
        <ele>304.667</ele>
        <time>2012-01-27T09:53:30Z</time>
      </trkpt>
      <trkpt lat="47.33393" lon="4.99705">
        <ele>306.832</ele>
        <time>2012-01-27T09:53:41Z</time>
      </trkpt>
      <trkpt lat="47.33402" lon="4.9972">
        <ele>308.48</ele>
        <time>2012-01-27T09:53:52Z</time>
      </trkpt>
      <trkpt lat="47.33413" lon="4.99732">
        <ele>311.696</ele>
        <time>2012-01-27T09:54:03Z</time>
      </trkpt>
      <trkpt lat="47.33423" lon="4.99745">
        <ele>313.891</ele>
        <time>2012-01-27T09:54:14Z</time>
      </trkpt>
      <trkpt lat="47.33433" lon="4.99758">
        <ele>317.328</ele>
        <time>2012-01-27T09:54:25Z</time>
      </trkpt>
      <trkpt lat="47.33445" lon="4.99772">
        <ele>320.124</ele>
        <time>2012-01-27T09:54:36Z</time>
      </trkpt>
      <trkpt lat="47.33457" lon="4.99783">
        <ele>321.67</ele>
        <time>2012-01-27T09:54:47Z</time>
      </trkpt>
      <trkpt lat="47.3347" lon="4.9979">
        <ele>323.448</ele>
        <time>2012-01-27T09:54:58Z</time>
      </trkpt>
      <trkpt lat="47.33483" lon="4.99798">
        <ele>325.227</ele>
        <time>2012-01-27T09:55:09Z</time>
      </trkpt>
      <trkpt lat="47.33495" lon="4.99803">
        <ele>327.791</ele>
        <time>2012-01-27T09:55:20Z</time>
      </trkpt>
      <trkpt lat="47.3351" lon="4.99808">
        <ele>327.429</ele>
        <time>2012-01-27T09:55:31Z</time>
      </trkpt>
      <trkpt lat="47.33527" lon="4.99817">
        <ele>328.445</ele>
        <time>2012-01-27T09:55:42Z</time>
      </trkpt>
      <trkpt lat="47.33542" lon="4.99822">
        <ele>328.993</ele>
        <time>2012-01-27T09:55:53Z</time>
      </trkpt>
      <trkpt lat="47.33558" lon="4.99827">
        <ele>329.322</ele>
        <time>2012-01-27T09:56:04Z</time>
      </trkpt>
      <trkpt lat="47.33573" lon="4.99827">
        <ele>329.595</ele>
        <time>2012-01-27T09:56:15Z</time>
      </trkpt>
      <trkpt lat="47.33585" lon="4.9981">
        <ele>329.819</ele>
        <time>2012-01-27T09:56:26Z</time>
      </trkpt>
      <trkpt lat="47.33577" lon="4.99795">
        <ele>329.861</ele>
        <time>2012-01-27T09:56:37Z</time>
      </trkpt>
      <trkpt lat="47.33583" lon="4.9978">
        <ele>328.055</ele>
        <time>2012-01-27T09:56:48Z</time>
      </trkpt>
      <trkpt lat="47.3359" lon="4.99763">
        <ele>326.258</ele>
        <time>2012-01-27T09:56:59Z</time>
      </trkpt>
      <trkpt lat="47.3358" lon="4.99767">
        <ele>323.386</ele>
        <time>2012-01-27T09:57:10Z</time>
      </trkpt>
      <trkpt lat="47.33567" lon="4.99752">
        <ele>322.215</ele>
        <time>2012-01-27T09:57:21Z</time>
      </trkpt>
      <trkpt lat="47.33573" lon="4.9973">
        <ele>321.2</ele>
        <time>2012-01-27T09:57:32Z</time>
      </trkpt>
      <trkpt lat="47.3359" lon="4.99728">
        <ele>319.115</ele>
        <time>2012-01-27T09:57:43Z</time>
      </trkpt>
      <trkpt lat="47.33608" lon="4.99732">
        <ele>314.882</ele>
        <time>2012-01-27T09:57:54Z</time>
      </trkpt>
      <trkpt lat="47.33625" lon="4.99738">
        <ele>314.615</ele>
        <time>2012-01-27T09:58:05Z</time>
      </trkpt>
      <trkpt lat="47.33638" lon="4.99745">
        <ele>308.87</ele>
        <time>2012-01-27T09:58:16Z</time>
      </trkpt>
      <trkpt lat="47.33653" lon="4.99747">
        <ele>304.992</ele>
        <time>2012-01-27T09:58:27Z</time>
      </trkpt>
      <trkpt lat="47.33662" lon="4.99733">
        <ele>303.319</ele>
        <time>2012-01-27T09:58:38Z</time>
      </trkpt>
      <trkpt lat="47.33662" lon="4.99733">
        <ele>303.319</ele>
        <time>2012-01-27T09:58:49Z</time>
      </trkpt>
      <trkpt lat="47.33663" lon="4.99733">
        <ele>303.437</ele>
        <time>2012-01-27T09:59:00Z</time>
      </trkpt>
      <trkpt lat="47.33663" lon="4.99723">
        <ele>302.67</ele>
        <time>2012-01-27T09:59:11Z</time>
      </trkpt>
      <trkpt lat="47.33662" lon="4.99707">
        <ele>301.43</ele>
        <time>2012-01-27T09:59:22Z</time>
      </trkpt>
      <trkpt lat="47.3366" lon="4.99688">
        <ele>300.438</ele>
        <time>2012-01-27T09:59:33Z</time>
      </trkpt>
      <trkpt lat="47.33653" lon="4.9967">
        <ele>299.377</ele>
        <time>2012-01-27T09:59:44Z</time>
      </trkpt>
      <trkpt lat="47.33647" lon="4.99652">
        <ele>299.181</ele>
        <time>2012-01-27T09:59:55Z</time>
      </trkpt>
      <trkpt lat="47.33635" lon="4.99638">
        <ele>296.919</ele>
        <time>2012-01-27T10:00:06Z</time>
      </trkpt>
      <trkpt lat="47.33627" lon="4.9963">
        <ele>296.023</ele>
        <time>2012-01-27T10:00:17Z</time>
      </trkpt>
      <trkpt lat="47.33613" lon="4.99615">
        <ele>298.028</ele>
        <time>2012-01-27T10:00:28Z</time>
      </trkpt>
      <trkpt lat="47.33603" lon="4.99602">
        <ele>298.349</ele>
        <time>2012-01-27T10:00:39Z</time>
      </trkpt>
      <trkpt lat="47.33588" lon="4.9959">
        <ele>299.269</ele>
        <time>2012-01-27T10:00:50Z</time>
      </trkpt>
      <trkpt lat="47.33578" lon="4.99573">
        <ele>296.472</ele>
        <time>2012-01-27T10:01:01Z</time>
      </trkpt>
      <trkpt lat="47.33568" lon="4.99555">
        <ele>294.015</ele>
        <time>2012-01-27T10:01:12Z</time>
      </trkpt>
      <trkpt lat="47.3356" lon="4.99535">
        <ele>292.583</ele>
        <time>2012-01-27T10:01:23Z</time>
      </trkpt>
      <trkpt lat="47.33552" lon="4.99517">
        <ele>291.277</ele>
        <time>2012-01-27T10:01:34Z</time>
      </trkpt>
      <trkpt lat="47.33542" lon="4.99498">
        <ele>293.297</ele>
        <time>2012-01-27T10:01:45Z</time>
      </trkpt>
      <trkpt lat="47.33537" lon="4.99482">
        <ele>294.308</ele>
        <time>2012-01-27T10:01:56Z</time>
      </trkpt>
      <trkpt lat="47.33532" lon="4.99465">
        <ele>295.014</ele>
        <time>2012-01-27T10:02:07Z</time>
      </trkpt>
      <trkpt lat="47.33527" lon="4.99447">
        <ele>293.944</ele>
        <time>2012-01-27T10:02:18Z</time>
      </trkpt>
      <trkpt lat="47.3352" lon="4.99428">
        <ele>293.764</ele>
        <time>2012-01-27T10:02:29Z</time>
      </trkpt>
      <trkpt lat="47.33515" lon="4.99412">
        <ele>295.114</ele>
        <time>2012-01-27T10:02:40Z</time>
      </trkpt>
      <trkpt lat="47.33508" lon="4.99392">
        <ele>295.182</ele>
        <time>2012-01-27T10:02:51Z</time>
      </trkpt>
      <trkpt lat="47.33503" lon="4.99373">
        <ele>296.238</ele>
        <time>2012-01-27T10:03:02Z</time>
      </trkpt>
      <trkpt lat="47.335" lon="4.99355">
        <ele>298.761</ele>
        <time>2012-01-27T10:03:13Z</time>
      </trkpt>
      <trkpt lat="47.33495" lon="4.99333">
        <ele>299.083</ele>
        <time>2012-01-27T10:03:24Z</time>
      </trkpt>
      <trkpt lat="47.33493" lon="4.9931">
        <ele>300.007</ele>
        <time>2012-01-27T10:03:35Z</time>
      </trkpt>
      <trkpt lat="47.33493" lon="4.99288">
        <ele>302.843</ele>
        <time>2012-01-27T10:03:46Z</time>
      </trkpt>
      <trkpt lat="47.33495" lon="4.99267">
        <ele>303.9</ele>
        <time>2012-01-27T10:03:57Z</time>
      </trkpt>
      <trkpt lat="47.33495" lon="4.99247">
        <ele>305.625</ele>
        <time>2012-01-27T10:04:08Z</time>
      </trkpt>
      <trkpt lat="47.33492" lon="4.99228">
        <ele>308.467</ele>
        <time>2012-01-27T10:04:19Z</time>
      </trkpt>
      <trkpt lat="47.335" lon="4.99212">
        <ele>308.16</ele>
        <time>2012-01-27T10:04:30Z</time>
      </trkpt>
      <trkpt lat="47.335" lon="4.99193">
        <ele>308.572</ele>
        <time>2012-01-27T10:04:41Z</time>
      </trkpt>
      <trkpt lat="47.33508" lon="4.99177">
        <ele>310.194</ele>
        <time>2012-01-27T10:04:52Z</time>
      </trkpt>
      <trkpt lat="47.33522" lon="4.99162">
        <ele>310.098</ele>
        <time>2012-01-27T10:05:03Z</time>
      </trkpt>
      <trkpt lat="47.33532" lon="4.99147">
        <ele>310.603</ele>
        <time>2012-01-27T10:05:14Z</time>
      </trkpt>
      <trkpt lat="47.33545" lon="4.99135">
        <ele>311.082</ele>
        <time>2012-01-27T10:05:25Z</time>
      </trkpt>
      <trkpt lat="47.33557" lon="4.99122">
        <ele>311.769</ele>
        <time>2012-01-27T10:05:36Z</time>
      </trkpt>
      <trkpt lat="47.3357" lon="4.9911">
        <ele>312.068</ele>
        <time>2012-01-27T10:05:47Z</time>
      </trkpt>
      <trkpt lat="47.33583" lon="4.991">
        <ele>314.942</ele>
        <time>2012-01-27T10:05:58Z</time>
      </trkpt>
      <trkpt lat="47.33597" lon="4.99097">
        <ele>317.169</ele>
        <time>2012-01-27T10:06:09Z</time>
      </trkpt>
      <trkpt lat="47.33612" lon="4.99097">
        <ele>321.5</ele>
        <time>2012-01-27T10:06:20Z</time>
      </trkpt>
      <trkpt lat="47.33627" lon="4.99095">
        <ele>323.092</ele>
        <time>2012-01-27T10:06:31Z</time>
      </trkpt>
      <trkpt lat="47.3364" lon="4.9909">
        <ele>325.005</ele>
        <time>2012-01-27T10:06:42Z</time>
      </trkpt>
      <trkpt lat="47.33653" lon="4.99085">
        <ele>325.382</ele>
        <time>2012-01-27T10:06:53Z</time>
      </trkpt>
      <trkpt lat="47.33668" lon="4.9908">
        <ele>324.182</ele>
        <time>2012-01-27T10:07:04Z</time>
      </trkpt>
      <trkpt lat="47.33683" lon="4.99078">
        <ele>323.031</ele>
        <time>2012-01-27T10:07:15Z</time>
      </trkpt>
      <trkpt lat="47.337" lon="4.9908">
        <ele>322.307</ele>
        <time>2012-01-27T10:07:26Z</time>
      </trkpt>
      <trkpt lat="47.33715" lon="4.99082">
        <ele>323.597</ele>
        <time>2012-01-27T10:07:37Z</time>
      </trkpt>
      <trkpt lat="47.33728" lon="4.9907">
        <ele>324.633</ele>
        <time>2012-01-27T10:07:48Z</time>
      </trkpt>
      <trkpt lat="47.33737" lon="4.99065">
        <ele>325.449</ele>
        <time>2012-01-27T10:07:59Z</time>
      </trkpt>
      <trkpt lat="47.33737" lon="4.99065">
        <ele>325.449</ele>
        <time>2012-01-27T10:08:10Z</time>
      </trkpt>
      <trkpt lat="47.33737" lon="4.99065">
        <ele>325.202</ele>
        <time>2012-01-27T10:08:21Z</time>
      </trkpt>
      <trkpt lat="47.33737" lon="4.99065">
        <ele>325.202</ele>
        <time>2012-01-27T10:08:32Z</time>
      </trkpt>
      <trkpt lat="47.33737" lon="4.99065">
        <ele>325.202</ele>
        <time>2012-01-27T10:08:43Z</time>
      </trkpt>
      <trkpt lat="47.33737" lon="4.99065">
        <ele>325.202</ele>
        <time>2012-01-27T10:08:54Z</time>
      </trkpt>
      <trkpt lat="47.33737" lon="4.99065">
        <ele>325.202</ele>
        <time>2012-01-27T10:09:05Z</time>
      </trkpt>
      <trkpt lat="47.33737" lon="4.99065">
        <ele>325.202</ele>
        <time>2012-01-27T10:09:16Z</time>
      </trkpt>
      <trkpt lat="47.33737" lon="4.99065">
        <ele>325.202</ele>
        <time>2012-01-27T10:09:27Z</time>
      </trkpt>
      <trkpt lat="47.3374" lon="4.99063">
        <ele>324.894</ele>
        <time>2012-01-27T10:09:38Z</time>
      </trkpt>
      <trkpt lat="47.3374" lon="4.99058">
        <ele>324.037</ele>
        <time>2012-01-27T10:09:49Z</time>
      </trkpt>
      <trkpt lat="47.33733" lon="4.99038">
        <ele>325.303</ele>
        <time>2012-01-27T10:10:00Z</time>
      </trkpt>
      <trkpt lat="47.33733" lon="4.99013">
        <ele>322.931</ele>
        <time>2012-01-27T10:10:11Z</time>
      </trkpt>
      <trkpt lat="47.33733" lon="4.98988">
        <ele>322.492</ele>
        <time>2012-01-27T10:10:22Z</time>
      </trkpt>
      <trkpt lat="47.33737" lon="4.98968">
        <ele>323.076</ele>
        <time>2012-01-27T10:10:33Z</time>
      </trkpt>
      <trkpt lat="47.33747" lon="4.98955">
        <ele>324.376</ele>
        <time>2012-01-27T10:10:44Z</time>
      </trkpt>
      <trkpt lat="47.33758" lon="4.98945">
        <ele>321.632</ele>
        <time>2012-01-27T10:10:55Z</time>
      </trkpt>
      <trkpt lat="47.33765" lon="4.98932">
        <ele>323.491</ele>
        <time>2012-01-27T10:11:06Z</time>
      </trkpt>
      <trkpt lat="47.33772" lon="4.98913">
        <ele>321.346</ele>
        <time>2012-01-27T10:11:17Z</time>
      </trkpt>
      <trkpt lat="47.33782" lon="4.98893">
        <ele>317.858</ele>
        <time>2012-01-27T10:11:28Z</time>
      </trkpt>
      <trkpt lat="47.33793" lon="4.98882">
        <ele>314.363</ele>
        <time>2012-01-27T10:11:39Z</time>
      </trkpt>
      <trkpt lat="47.33808" lon="4.98873">
        <ele>311.613</ele>
        <time>2012-01-27T10:11:50Z</time>
      </trkpt>
      <trkpt lat="47.33822" lon="4.98867">
        <ele>309.784</ele>
        <time>2012-01-27T10:12:01Z</time>
      </trkpt>
      <trkpt lat="47.33832" lon="4.98862">
        <ele>310.481</ele>
        <time>2012-01-27T10:12:12Z</time>
      </trkpt>
      <trkpt lat="47.3384" lon="4.98847">
        <ele>310.01</ele>
        <time>2012-01-27T10:12:23Z</time>
      </trkpt>
      <trkpt lat="47.33848" lon="4.9883">
        <ele>309.72</ele>
        <time>2012-01-27T10:12:34Z</time>
      </trkpt>
      <trkpt lat="47.33857" lon="4.98812">
        <ele>308.454</ele>
        <time>2012-01-27T10:12:45Z</time>
      </trkpt>
      <trkpt lat="47.33867" lon="4.98792">
        <ele>307.499</ele>
        <time>2012-01-27T10:12:56Z</time>
      </trkpt>
      <trkpt lat="47.33872" lon="4.98785">
        <ele>307.651</ele>
        <time>2012-01-27T10:13:07Z</time>
      </trkpt>
      <trkpt lat="47.33882" lon="4.98778">
        <ele>307.518</ele>
        <time>2012-01-27T10:13:18Z</time>
      </trkpt>
      <trkpt lat="47.33893" lon="4.98773">
        <ele>309.66</ele>
        <time>2012-01-27T10:13:29Z</time>
      </trkpt>
      <trkpt lat="47.33908" lon="4.98773">
        <ele>309.874</ele>
        <time>2012-01-27T10:13:40Z</time>
      </trkpt>
      <trkpt lat="47.33923" lon="4.98777">
        <ele>307.997</ele>
        <time>2012-01-27T10:13:51Z</time>
      </trkpt>
      <trkpt lat="47.33937" lon="4.98777">
        <ele>307.162</ele>
        <time>2012-01-27T10:14:02Z</time>
      </trkpt>
      <trkpt lat="47.33952" lon="4.98775">
        <ele>308.051</ele>
        <time>2012-01-27T10:14:13Z</time>
      </trkpt>
      <trkpt lat="47.33967" lon="4.98778">
        <ele>306.473</ele>
        <time>2012-01-27T10:14:24Z</time>
      </trkpt>
      <trkpt lat="47.33982" lon="4.9878">
        <ele>306.772</ele>
        <time>2012-01-27T10:14:35Z</time>
      </trkpt>
      <trkpt lat="47.33997" lon="4.9878">
        <ele>306.626</ele>
        <time>2012-01-27T10:14:46Z</time>
      </trkpt>
      <trkpt lat="47.34012" lon="4.9878">
        <ele>305.703</ele>
        <time>2012-01-27T10:14:57Z</time>
      </trkpt>
      <trkpt lat="47.34027" lon="4.98782">
        <ele>306.053</ele>
        <time>2012-01-27T10:15:08Z</time>
      </trkpt>
      <trkpt lat="47.34037" lon="4.98783">
        <ele>308.534</ele>
        <time>2012-01-27T10:15:19Z</time>
      </trkpt>
      <trkpt lat="47.34043" lon="4.98787">
        <ele>309.516</ele>
        <time>2012-01-27T10:15:30Z</time>
      </trkpt>
      <trkpt lat="47.34053" lon="4.9879">
        <ele>311.188</ele>
        <time>2012-01-27T10:15:41Z</time>
      </trkpt>
      <trkpt lat="47.3406" lon="4.98798">
        <ele>313.486</ele>
        <time>2012-01-27T10:15:52Z</time>
      </trkpt>
      <trkpt lat="47.34068" lon="4.98808">
        <ele>315.833</ele>
        <time>2012-01-27T10:16:03Z</time>
      </trkpt>
      <trkpt lat="47.34083" lon="4.98813">
        <ele>317.588</ele>
        <time>2012-01-27T10:16:14Z</time>
      </trkpt>
      <trkpt lat="47.34092" lon="4.98823">
        <ele>319.036</ele>
        <time>2012-01-27T10:16:25Z</time>
      </trkpt>
      <trkpt lat="47.34092" lon="4.98835">
        <ele>320.897</ele>
        <time>2012-01-27T10:16:36Z</time>
      </trkpt>
      <trkpt lat="47.34095" lon="4.98848">
        <ele>320.939</ele>
        <time>2012-01-27T10:16:47Z</time>
      </trkpt>
      <trkpt lat="47.34095" lon="4.98853">
        <ele>321.197</ele>
        <time>2012-01-27T10:16:58Z</time>
      </trkpt>
      <trkpt lat="47.34088" lon="4.98867">
        <ele>322.307</ele>
        <time>2012-01-27T10:17:09Z</time>
      </trkpt>
      <trkpt lat="47.34083" lon="4.9888">
        <ele>322.667</ele>
        <time>2012-01-27T10:17:20Z</time>
      </trkpt>
      <trkpt lat="47.34087" lon="4.98887">
        <ele>322.159</ele>
        <time>2012-01-27T10:17:31Z</time>
      </trkpt>
      <trkpt lat="47.34087" lon="4.98887">
        <ele>322.283</ele>
        <time>2012-01-27T10:17:42Z</time>
      </trkpt>
      <trkpt lat="47.34087" lon="4.98887">
        <ele>321.244</ele>
        <time>2012-01-27T10:17:53Z</time>
      </trkpt>
      <trkpt lat="47.34087" lon="4.98887">
        <ele>321.244</ele>
        <time>2012-01-27T10:18:04Z</time>
      </trkpt>
      <trkpt lat="47.34087" lon="4.98887">
        <ele>321.295</ele>
        <time>2012-01-27T10:18:15Z</time>
      </trkpt>
      <trkpt lat="47.34087" lon="4.98887">
        <ele>321.295</ele>
        <time>2012-01-27T10:18:26Z</time>
      </trkpt>
      <trkpt lat="47.34087" lon="4.98888">
        <ele>321.62</ele>
        <time>2012-01-27T10:18:37Z</time>
      </trkpt>
      <trkpt lat="47.34087" lon="4.98888">
        <ele>321.341</ele>
        <time>2012-01-27T10:18:48Z</time>
      </trkpt>
      <trkpt lat="47.34087" lon="4.98888">
        <ele>321.341</ele>
        <time>2012-01-27T10:18:59Z</time>
      </trkpt>
      <trkpt lat="47.34087" lon="4.98888">
        <ele>321.341</ele>
        <time>2012-01-27T10:19:10Z</time>
      </trkpt>
      <trkpt lat="47.34087" lon="4.98893">
        <ele>320.25</ele>
        <time>2012-01-27T10:19:21Z</time>
      </trkpt>
      <trkpt lat="47.34093" lon="4.98905">
        <ele>321.386</ele>
        <time>2012-01-27T10:19:32Z</time>
      </trkpt>
      <trkpt lat="47.34103" lon="4.98918">
        <ele>324.683</ele>
        <time>2012-01-27T10:19:43Z</time>
      </trkpt>
      <trkpt lat="47.34113" lon="4.98928">
        <ele>326.509</ele>
        <time>2012-01-27T10:19:54Z</time>
      </trkpt>
      <trkpt lat="47.34127" lon="4.98943">
        <ele>327.334</ele>
        <time>2012-01-27T10:20:05Z</time>
      </trkpt>
      <trkpt lat="47.3414" lon="4.98957">
        <ele>327.662</ele>
        <time>2012-01-27T10:20:16Z</time>
      </trkpt>
      <trkpt lat="47.34147" lon="4.9897">
        <ele>327.834</ele>
        <time>2012-01-27T10:20:27Z</time>
      </trkpt>
      <trkpt lat="47.34153" lon="4.98975">
        <ele>327.632</ele>
        <time>2012-01-27T10:20:38Z</time>
      </trkpt>
      <trkpt lat="47.34163" lon="4.9899">
        <ele>328.621</ele>
        <time>2012-01-27T10:20:49Z</time>
      </trkpt>
      <trkpt lat="47.34178" lon="4.99002">
        <ele>328.874</ele>
        <time>2012-01-27T10:21:00Z</time>
      </trkpt>
      <trkpt lat="47.34188" lon="4.99017">
        <ele>331.951</ele>
        <time>2012-01-27T10:21:11Z</time>
      </trkpt>
      <trkpt lat="47.34193" lon="4.99037">
        <ele>333.495</ele>
        <time>2012-01-27T10:21:22Z</time>
      </trkpt>
      <trkpt lat="47.3419" lon="4.99058">
        <ele>335.104</ele>
        <time>2012-01-27T10:21:33Z</time>
      </trkpt>
      <trkpt lat="47.34198" lon="4.9907">
        <ele>335.515</ele>
        <time>2012-01-27T10:21:44Z</time>
      </trkpt>
      <trkpt lat="47.34213" lon="4.9908">
        <ele>333.469</ele>
        <time>2012-01-27T10:21:55Z</time>
      </trkpt>
      <trkpt lat="47.34228" lon="4.99088">
        <ele>332.484</ele>
        <time>2012-01-27T10:22:06Z</time>
      </trkpt>
      <trkpt lat="47.34243" lon="4.99098">
        <ele>332.331</ele>
        <time>2012-01-27T10:22:17Z</time>
      </trkpt>
      <trkpt lat="47.34257" lon="4.99107">
        <ele>331.61</ele>
        <time>2012-01-27T10:22:28Z</time>
      </trkpt>
      <trkpt lat="47.34272" lon="4.99115">
        <ele>333.015</ele>
        <time>2012-01-27T10:22:39Z</time>
      </trkpt>
      <trkpt lat="47.34285" lon="4.99123">
        <ele>333.723</ele>
        <time>2012-01-27T10:22:50Z</time>
      </trkpt>
      <trkpt lat="47.343" lon="4.99132">
        <ele>333.777</ele>
        <time>2012-01-27T10:23:01Z</time>
      </trkpt>
      <trkpt lat="47.34312" lon="4.99142">
        <ele>332.077</ele>
        <time>2012-01-27T10:23:12Z</time>
      </trkpt>
      <trkpt lat="47.34322" lon="4.99153">
        <ele>332.747</ele>
        <time>2012-01-27T10:23:23Z</time>
      </trkpt>
      <trkpt lat="47.34333" lon="4.9917">
        <ele>334.626</ele>
        <time>2012-01-27T10:23:34Z</time>
      </trkpt>
      <trkpt lat="47.34342" lon="4.99188">
        <ele>336.733</ele>
        <time>2012-01-27T10:23:45Z</time>
      </trkpt>
      <trkpt lat="47.34348" lon="4.99207">
        <ele>338.606</ele>
        <time>2012-01-27T10:23:56Z</time>
      </trkpt>
      <trkpt lat="47.34352" lon="4.99227">
        <ele>340.819</ele>
        <time>2012-01-27T10:24:07Z</time>
      </trkpt>
      <trkpt lat="47.34353" lon="4.99248">
        <ele>343.259</ele>
        <time>2012-01-27T10:24:18Z</time>
      </trkpt>
      <trkpt lat="47.34353" lon="4.99268">
        <ele>344.147</ele>
        <time>2012-01-27T10:24:29Z</time>
      </trkpt>
      <trkpt lat="47.34353" lon="4.9929">
        <ele>344.792</ele>
        <time>2012-01-27T10:24:40Z</time>
      </trkpt>
      <trkpt lat="47.3435" lon="4.99308">
        <ele>345.111</ele>
        <time>2012-01-27T10:24:51Z</time>
      </trkpt>
      <trkpt lat="47.34347" lon="4.9933">
        <ele>346.365</ele>
        <time>2012-01-27T10:25:02Z</time>
      </trkpt>
      <trkpt lat="47.34353" lon="4.9934">
        <ele>347.724</ele>
        <time>2012-01-27T10:25:13Z</time>
      </trkpt>
      <trkpt lat="47.34367" lon="4.9933">
        <ele>348.056</ele>
        <time>2012-01-27T10:25:24Z</time>
      </trkpt>
      <trkpt lat="47.3438" lon="4.99318">
        <ele>348.788</ele>
        <time>2012-01-27T10:25:35Z</time>
      </trkpt>
      <trkpt lat="47.34392" lon="4.99305">
        <ele>349.245</ele>
        <time>2012-01-27T10:25:46Z</time>
      </trkpt>
      <trkpt lat="47.34403" lon="4.9929">
        <ele>350.018</ele>
        <time>2012-01-27T10:25:57Z</time>
      </trkpt>
      <trkpt lat="47.34415" lon="4.99273">
        <ele>349.668</ele>
        <time>2012-01-27T10:26:08Z</time>
      </trkpt>
      <trkpt lat="47.34425" lon="4.99257">
        <ele>350.094</ele>
        <time>2012-01-27T10:26:19Z</time>
      </trkpt>
      <trkpt lat="47.34438" lon="4.99242">
        <ele>351.158</ele>
        <time>2012-01-27T10:26:30Z</time>
      </trkpt>
      <trkpt lat="47.34445" lon="4.99225">
        <ele>349.334</ele>
        <time>2012-01-27T10:26:41Z</time>
      </trkpt>
      <trkpt lat="47.3445" lon="4.99205">
        <ele>348.512</ele>
        <time>2012-01-27T10:26:52Z</time>
      </trkpt>
      <trkpt lat="47.34453" lon="4.9919">
        <ele>348.83</ele>
        <time>2012-01-27T10:27:03Z</time>
      </trkpt>
      <trkpt lat="47.34458" lon="4.99173">
        <ele>347.93</ele>
        <time>2012-01-27T10:27:14Z</time>
      </trkpt>
      <trkpt lat="47.34462" lon="4.99148">
        <ele>346.166</ele>
        <time>2012-01-27T10:27:25Z</time>
      </trkpt>
      <trkpt lat="47.34462" lon="4.99127">
        <ele>345.075</ele>
        <time>2012-01-27T10:27:36Z</time>
      </trkpt>
      <trkpt lat="47.34462" lon="4.99105">
        <ele>343.294</ele>
        <time>2012-01-27T10:27:47Z</time>
      </trkpt>
      <trkpt lat="47.34465" lon="4.9908">
        <ele>343.44</ele>
        <time>2012-01-27T10:27:58Z</time>
      </trkpt>
      <trkpt lat="47.34467" lon="4.99055">
        <ele>343.519</ele>
        <time>2012-01-27T10:28:09Z</time>
      </trkpt>
      <trkpt lat="47.34468" lon="4.9903">
        <ele>344.707</ele>
        <time>2012-01-27T10:28:20Z</time>
      </trkpt>
      <trkpt lat="47.34472" lon="4.99007">
        <ele>345.435</ele>
        <time>2012-01-27T10:28:31Z</time>
      </trkpt>
      <trkpt lat="47.34475" lon="4.98982">
        <ele>344.122</ele>
        <time>2012-01-27T10:28:42Z</time>
      </trkpt>
      <trkpt lat="47.34478" lon="4.9896">
        <ele>344.174</ele>
        <time>2012-01-27T10:28:53Z</time>
      </trkpt>
      <trkpt lat="47.34482" lon="4.98937">
        <ele>345.487</ele>
        <time>2012-01-27T10:29:04Z</time>
      </trkpt>
      <trkpt lat="47.3448" lon="4.98917">
        <ele>346.943</ele>
        <time>2012-01-27T10:29:15Z</time>
      </trkpt>
      <trkpt lat="47.34465" lon="4.98912">
        <ele>345.15</ele>
        <time>2012-01-27T10:29:26Z</time>
      </trkpt>
      <trkpt lat="47.3445" lon="4.98903">
        <ele>345.795</ele>
        <time>2012-01-27T10:29:37Z</time>
      </trkpt>
      <trkpt lat="47.34437" lon="4.98893">
        <ele>342.919</ele>
        <time>2012-01-27T10:29:48Z</time>
      </trkpt>
      <trkpt lat="47.34422" lon="4.98892">
        <ele>341.812</ele>
        <time>2012-01-27T10:29:59Z</time>
      </trkpt>
      <trkpt lat="47.34407" lon="4.98888">
        <ele>340.579</ele>
        <time>2012-01-27T10:30:10Z</time>
      </trkpt>
      <trkpt lat="47.34392" lon="4.98885">
        <ele>339.691</ele>
        <time>2012-01-27T10:30:21Z</time>
      </trkpt>
      <trkpt lat="47.34375" lon="4.98882">
        <ele>339.536</ele>
        <time>2012-01-27T10:30:32Z</time>
      </trkpt>
      <trkpt lat="47.34362" lon="4.9888">
        <ele>340.233</ele>
        <time>2012-01-27T10:30:43Z</time>
      </trkpt>
      <trkpt lat="47.34348" lon="4.9888">
        <ele>340.017</ele>
        <time>2012-01-27T10:30:54Z</time>
      </trkpt>
      <trkpt lat="47.34335" lon="4.9888">
        <ele>338.725</ele>
        <time>2012-01-27T10:31:05Z</time>
      </trkpt>
      <trkpt lat="47.3433" lon="4.9888">
        <ele>337.944</ele>
        <time>2012-01-27T10:31:16Z</time>
      </trkpt>
      <trkpt lat="47.34333" lon="4.98857">
        <ele>337.774</ele>
        <time>2012-01-27T10:31:27Z</time>
      </trkpt>
      <trkpt lat="47.3434" lon="4.98838">
        <ele>335.628</ele>
        <time>2012-01-27T10:31:38Z</time>
      </trkpt>
      <trkpt lat="47.3435" lon="4.98825">
        <ele>334.717</ele>
        <time>2012-01-27T10:31:49Z</time>
      </trkpt>
      <trkpt lat="47.34363" lon="4.9881">
        <ele>332.234</ele>
        <time>2012-01-27T10:32:00Z</time>
      </trkpt>
      <trkpt lat="47.34375" lon="4.98802">
        <ele>333.728</ele>
        <time>2012-01-27T10:32:11Z</time>
      </trkpt>
      <trkpt lat="47.34387" lon="4.98788">
        <ele>333.488</ele>
        <time>2012-01-27T10:32:22Z</time>
      </trkpt>
      <trkpt lat="47.34398" lon="4.98777">
        <ele>332.49</ele>
        <time>2012-01-27T10:32:33Z</time>
      </trkpt>
      <trkpt lat="47.34412" lon="4.98765">
        <ele>333.725</ele>
        <time>2012-01-27T10:32:44Z</time>
      </trkpt>
      <trkpt lat="47.34422" lon="4.9875">
        <ele>334.483</ele>
        <time>2012-01-27T10:32:55Z</time>
      </trkpt>
      <trkpt lat="47.34422" lon="4.98733">
        <ele>333.557</ele>
        <time>2012-01-27T10:33:06Z</time>
      </trkpt>
      <trkpt lat="47.34412" lon="4.98722">
        <ele>335.975</ele>
        <time>2012-01-27T10:33:17Z</time>
      </trkpt>
      <trkpt lat="47.344" lon="4.98713">
        <ele>339.234</ele>
        <time>2012-01-27T10:33:28Z</time>
      </trkpt>
      <trkpt lat="47.3439" lon="4.98707">
        <ele>340.231</ele>
        <time>2012-01-27T10:33:39Z</time>
      </trkpt>
      <trkpt lat="47.3438" lon="4.987">
        <ele>341.125</ele>
        <time>2012-01-27T10:33:50Z</time>
      </trkpt>
      <trkpt lat="47.3437" lon="4.98685">
        <ele>343.284</ele>
        <time>2012-01-27T10:34:01Z</time>
      </trkpt>
      <trkpt lat="47.34362" lon="4.98673">
        <ele>344.186</ele>
        <time>2012-01-27T10:34:12Z</time>
      </trkpt>
      <trkpt lat="47.3435" lon="4.98658">
        <ele>343.811</ele>
        <time>2012-01-27T10:34:23Z</time>
      </trkpt>
      <trkpt lat="47.3434" lon="4.98642">
        <ele>344.011</ele>
        <time>2012-01-27T10:34:34Z</time>
      </trkpt>
      <trkpt lat="47.3433" lon="4.98623">
        <ele>344.516</ele>
        <time>2012-01-27T10:34:45Z</time>
      </trkpt>
      <trkpt lat="47.34317" lon="4.98612">
        <ele>345.264</ele>
        <time>2012-01-27T10:34:56Z</time>
      </trkpt>
      <trkpt lat="47.34303" lon="4.98597">
        <ele>344.107</ele>
        <time>2012-01-27T10:35:07Z</time>
      </trkpt>
      <trkpt lat="47.34292" lon="4.98585">
        <ele>344.452</ele>
        <time>2012-01-27T10:35:18Z</time>
      </trkpt>
      <trkpt lat="47.34283" lon="4.98577">
        <ele>344.309</ele>
        <time>2012-01-27T10:35:29Z</time>
      </trkpt>
      <trkpt lat="47.34275" lon="4.98565">
        <ele>343.764</ele>
        <time>2012-01-27T10:35:40Z</time>
      </trkpt>
      <trkpt lat="47.3426" lon="4.98547">
        <ele>342.367</ele>
        <time>2012-01-27T10:35:51Z</time>
      </trkpt>
      <trkpt lat="47.34243" lon="4.9854">
        <ele>343.1</ele>
        <time>2012-01-27T10:36:02Z</time>
      </trkpt>
      <trkpt lat="47.34228" lon="4.98533">
        <ele>342.521</ele>
        <time>2012-01-27T10:36:13Z</time>
      </trkpt>
      <trkpt lat="47.34218" lon="4.98538">
        <ele>342.935</ele>
        <time>2012-01-27T10:36:24Z</time>
      </trkpt>
      <trkpt lat="47.34207" lon="4.98535">
        <ele>343.762</ele>
        <time>2012-01-27T10:36:35Z</time>
      </trkpt>
      <trkpt lat="47.34195" lon="4.98527">
        <ele>344.903</ele>
        <time>2012-01-27T10:36:46Z</time>
      </trkpt>
      <trkpt lat="47.34183" lon="4.98517">
        <ele>345.103</ele>
        <time>2012-01-27T10:36:57Z</time>
      </trkpt>
      <trkpt lat="47.34173" lon="4.98505">
        <ele>346.276</ele>
        <time>2012-01-27T10:37:08Z</time>
      </trkpt>
      <trkpt lat="47.34162" lon="4.98492">
        <ele>346.188</ele>
        <time>2012-01-27T10:37:19Z</time>
      </trkpt>
      <trkpt lat="47.34147" lon="4.98477">
        <ele>346.598</ele>
        <time>2012-01-27T10:37:30Z</time>
      </trkpt>
      <trkpt lat="47.34137" lon="4.98468">
        <ele>345.933</ele>
        <time>2012-01-27T10:37:41Z</time>
      </trkpt>
      <trkpt lat="47.34122" lon="4.98458">
        <ele>344.619</ele>
        <time>2012-01-27T10:37:52Z</time>
      </trkpt>
      <trkpt lat="47.34107" lon="4.9845">
        <ele>344.939</ele>
        <time>2012-01-27T10:38:03Z</time>
      </trkpt>
      <trkpt lat="47.34097" lon="4.9844">
        <ele>345.531</ele>
        <time>2012-01-27T10:38:14Z</time>
      </trkpt>
      <trkpt lat="47.34085" lon="4.98425">
        <ele>345.336</ele>
        <time>2012-01-27T10:38:25Z</time>
      </trkpt>
      <trkpt lat="47.34073" lon="4.98407">
        <ele>345.347</ele>
        <time>2012-01-27T10:38:36Z</time>
      </trkpt>
      <trkpt lat="47.34063" lon="4.98393">
        <ele>346.02</ele>
        <time>2012-01-27T10:38:47Z</time>
      </trkpt>
      <trkpt lat="47.34057" lon="4.98393">
        <ele>345.587</ele>
        <time>2012-01-27T10:38:58Z</time>
      </trkpt>
      <trkpt lat="47.34043" lon="4.98392">
        <ele>344.693</ele>
        <time>2012-01-27T10:39:09Z</time>
      </trkpt>
      <trkpt lat="47.3403" lon="4.9838">
        <ele>344.728</ele>
        <time>2012-01-27T10:39:20Z</time>
      </trkpt>
      <trkpt lat="47.34015" lon="4.98378">
        <ele>344.307</ele>
        <time>2012-01-27T10:39:31Z</time>
      </trkpt>
      <trkpt lat="47.34005" lon="4.98362">
        <ele>343.431</ele>
        <time>2012-01-27T10:39:42Z</time>
      </trkpt>
      <trkpt lat="47.34002" lon="4.98337">
        <ele>342.353</ele>
        <time>2012-01-27T10:39:53Z</time>
      </trkpt>
      <trkpt lat="47.33992" lon="4.98327">
        <ele>341.241</ele>
        <time>2012-01-27T10:40:04Z</time>
      </trkpt>
      <trkpt lat="47.33985" lon="4.9832">
        <ele>340.04</ele>
        <time>2012-01-27T10:40:15Z</time>
      </trkpt>
      <trkpt lat="47.33973" lon="4.98313">
        <ele>338.554</ele>
        <time>2012-01-27T10:40:26Z</time>
      </trkpt>
      <trkpt lat="47.33962" lon="4.98312">
        <ele>336.513</ele>
        <time>2012-01-27T10:40:37Z</time>
      </trkpt>
      <trkpt lat="47.33948" lon="4.98303">
        <ele>334.226</ele>
        <time>2012-01-27T10:40:48Z</time>
      </trkpt>
      <trkpt lat="47.3394" lon="4.98303">
        <ele>334.548</ele>
        <time>2012-01-27T10:40:59Z</time>
      </trkpt>
      <trkpt lat="47.33938" lon="4.98297">
        <ele>332.177</ele>
        <time>2012-01-27T10:41:10Z</time>
      </trkpt>
      <trkpt lat="47.33945" lon="4.9828">
        <ele>328.708</ele>
        <time>2012-01-27T10:41:21Z</time>
      </trkpt>
      <trkpt lat="47.33953" lon="4.98268">
        <ele>325.155</ele>
        <time>2012-01-27T10:41:32Z</time>
      </trkpt>
      <trkpt lat="47.33955" lon="4.98253">
        <ele>323.983</ele>
        <time>2012-01-27T10:41:43Z</time>
      </trkpt>
      <trkpt lat="47.3395" lon="4.98237">
        <ele>320.576</ele>
        <time>2012-01-27T10:41:54Z</time>
      </trkpt>
      <trkpt lat="47.33942" lon="4.98232">
        <ele>319.345</ele>
        <time>2012-01-27T10:42:05Z</time>
      </trkpt>
      <trkpt lat="47.33928" lon="4.98228">
        <ele>316.914</ele>
        <time>2012-01-27T10:42:16Z</time>
      </trkpt>
      <trkpt lat="47.33913" lon="4.98225">
        <ele>312.456</ele>
        <time>2012-01-27T10:42:27Z</time>
      </trkpt>
      <trkpt lat="47.33897" lon="4.98218">
        <ele>309.177</ele>
        <time>2012-01-27T10:42:38Z</time>
      </trkpt>
      <trkpt lat="47.3388" lon="4.98218">
        <ele>305.574</ele>
        <time>2012-01-27T10:42:49Z</time>
      </trkpt>
      <trkpt lat="47.33863" lon="4.98217">
        <ele>303.165</ele>
        <time>2012-01-27T10:43:00Z</time>
      </trkpt>
      <trkpt lat="47.33847" lon="4.98215">
        <ele>300.528</ele>
        <time>2012-01-27T10:43:11Z</time>
      </trkpt>
      <trkpt lat="47.33832" lon="4.98212">
        <ele>295.613</ele>
        <time>2012-01-27T10:43:22Z</time>
      </trkpt>
      <trkpt lat="47.33817" lon="4.98207">
        <ele>290.583</ele>
        <time>2012-01-27T10:43:33Z</time>
      </trkpt>
      <trkpt lat="47.33802" lon="4.98208">
        <ele>286.449</ele>
        <time>2012-01-27T10:43:44Z</time>
      </trkpt>
      <trkpt lat="47.33793" lon="4.98225">
        <ele>281.694</ele>
        <time>2012-01-27T10:43:55Z</time>
      </trkpt>
      <trkpt lat="47.33785" lon="4.98247">
        <ele>279.758</ele>
        <time>2012-01-27T10:44:06Z</time>
      </trkpt>
      <trkpt lat="47.33778" lon="4.98268">
        <ele>277.643</ele>
        <time>2012-01-27T10:44:17Z</time>
      </trkpt>
      <trkpt lat="47.3377" lon="4.98292">
        <ele>276.038</ele>
        <time>2012-01-27T10:44:28Z</time>
      </trkpt>
      <trkpt lat="47.33762" lon="4.98312">
        <ele>274.588</ele>
        <time>2012-01-27T10:44:39Z</time>
      </trkpt>
      <trkpt lat="47.33753" lon="4.98335">
        <ele>274.824</ele>
        <time>2012-01-27T10:44:50Z</time>
      </trkpt>
      <trkpt lat="47.33747" lon="4.98357">
        <ele>272.79</ele>
        <time>2012-01-27T10:45:01Z</time>
      </trkpt>
      <trkpt lat="47.33742" lon="4.98377">
        <ele>271.593</ele>
        <time>2012-01-27T10:45:12Z</time>
      </trkpt>
      <trkpt lat="47.33735" lon="4.98397">
        <ele>271.22</ele>
        <time>2012-01-27T10:45:23Z</time>
      </trkpt>
      <trkpt lat="47.33725" lon="4.98417">
        <ele>272.861</ele>
        <time>2012-01-27T10:45:34Z</time>
      </trkpt>
      <trkpt lat="47.3371" lon="4.98425">
        <ele>274.216</ele>
        <time>2012-01-27T10:45:45Z</time>
      </trkpt>
      <trkpt lat="47.33693" lon="4.9843">
        <ele>274.441</ele>
        <time>2012-01-27T10:45:56Z</time>
      </trkpt>
      <trkpt lat="47.3368" lon="4.98433">
        <ele>273.033</ele>
        <time>2012-01-27T10:46:07Z</time>
      </trkpt>
      <trkpt lat="47.33667" lon="4.98445">
        <ele>271.208</ele>
        <time>2012-01-27T10:46:18Z</time>
      </trkpt>
      <trkpt lat="47.33653" lon="4.9846">
        <ele>270.462</ele>
        <time>2012-01-27T10:46:29Z</time>
      </trkpt>
      <trkpt lat="47.33642" lon="4.98475">
        <ele>271.387</ele>
        <time>2012-01-27T10:46:40Z</time>
      </trkpt>
      <trkpt lat="47.3363" lon="4.9849">
        <ele>270.782</ele>
        <time>2012-01-27T10:46:51Z</time>
      </trkpt>
      <trkpt lat="47.3362" lon="4.98507">
        <ele>270.946</ele>
        <time>2012-01-27T10:47:02Z</time>
      </trkpt>
      <trkpt lat="47.3361" lon="4.98525">
        <ele>271.694</ele>
        <time>2012-01-27T10:47:13Z</time>
      </trkpt>
      <trkpt lat="47.336" lon="4.98542">
        <ele>272.454</ele>
        <time>2012-01-27T10:47:24Z</time>
      </trkpt>
      <trkpt lat="47.33588" lon="4.98558">
        <ele>272.799</ele>
        <time>2012-01-27T10:47:35Z</time>
      </trkpt>
      <trkpt lat="47.33577" lon="4.98577">
        <ele>273.598</ele>
        <time>2012-01-27T10:47:46Z</time>
      </trkpt>
      <trkpt lat="47.33567" lon="4.98593">
        <ele>276.067</ele>
        <time>2012-01-27T10:47:57Z</time>
      </trkpt>
      <trkpt lat="47.33555" lon="4.98612">
        <ele>276.096</ele>
        <time>2012-01-27T10:48:08Z</time>
      </trkpt>
      <trkpt lat="47.33545" lon="4.98627">
        <ele>276.857</ele>
        <time>2012-01-27T10:48:19Z</time>
      </trkpt>
      <trkpt lat="47.33533" lon="4.98645">
        <ele>277.396</ele>
        <time>2012-01-27T10:48:30Z</time>
      </trkpt>
      <trkpt lat="47.33522" lon="4.98663">
        <ele>277.259</ele>
        <time>2012-01-27T10:48:41Z</time>
      </trkpt>
      <trkpt lat="47.3351" lon="4.98683">
        <ele>277.793</ele>
        <time>2012-01-27T10:48:52Z</time>
      </trkpt>
      <trkpt lat="47.33497" lon="4.98702">
        <ele>277.155</ele>
        <time>2012-01-27T10:49:03Z</time>
      </trkpt>
      <trkpt lat="47.33485" lon="4.9872">
        <ele>276.077</ele>
        <time>2012-01-27T10:49:14Z</time>
      </trkpt>
      <trkpt lat="47.33472" lon="4.9874">
        <ele>275.899</ele>
        <time>2012-01-27T10:49:25Z</time>
      </trkpt>
      <trkpt lat="47.3346" lon="4.9876">
        <ele>276.898</ele>
        <time>2012-01-27T10:49:36Z</time>
      </trkpt>
      <trkpt lat="47.33445" lon="4.9878">
        <ele>277.535</ele>
        <time>2012-01-27T10:49:47Z</time>
      </trkpt>
      <trkpt lat="47.33433" lon="4.988">
        <ele>279.26</ele>
        <time>2012-01-27T10:49:58Z</time>
      </trkpt>
      <trkpt lat="47.3342" lon="4.98818">
        <ele>279.79</ele>
        <time>2012-01-27T10:50:09Z</time>
      </trkpt>
      <trkpt lat="47.33408" lon="4.98835">
        <ele>280.499</ele>
        <time>2012-01-27T10:50:20Z</time>
      </trkpt>
      <trkpt lat="47.33397" lon="4.98852">
        <ele>281.592</ele>
        <time>2012-01-27T10:50:31Z</time>
      </trkpt>
      <trkpt lat="47.33388" lon="4.98867">
        <ele>282.957</ele>
        <time>2012-01-27T10:50:42Z</time>
      </trkpt>
      <trkpt lat="47.33377" lon="4.98882">
        <ele>283.002</ele>
        <time>2012-01-27T10:50:53Z</time>
      </trkpt>
      <trkpt lat="47.33367" lon="4.989">
        <ele>283.923</ele>
        <time>2012-01-27T10:51:04Z</time>
      </trkpt>
      <trkpt lat="47.33365" lon="4.98917">
        <ele>286.562</ele>
        <time>2012-01-27T10:51:15Z</time>
      </trkpt>
      <trkpt lat="47.33358" lon="4.9893">
        <ele>290.45</ele>
        <time>2012-01-27T10:51:26Z</time>
      </trkpt>
      <trkpt lat="47.33358" lon="4.98932">
        <ele>290.329</ele>
        <time>2012-01-27T10:51:37Z</time>
      </trkpt>
      <trkpt lat="47.33358" lon="4.98932">
        <ele>290.329</ele>
        <time>2012-01-27T10:51:48Z</time>
      </trkpt>
      <trkpt lat="47.33358" lon="4.98932">
        <ele>290.329</ele>
        <time>2012-01-27T10:51:59Z</time>
      </trkpt>
      <trkpt lat="47.33358" lon="4.98932">
        <ele>290.515</ele>
        <time>2012-01-27T10:52:10Z</time>
      </trkpt>
      <trkpt lat="47.33358" lon="4.98932">
        <ele>290.515</ele>
        <time>2012-01-27T10:52:21Z</time>
      </trkpt>
      <trkpt lat="47.33358" lon="4.98932">
        <ele>290.515</ele>
        <time>2012-01-27T10:52:32Z</time>
      </trkpt>
      <trkpt lat="47.33358" lon="4.98932">
        <ele>290.515</ele>
        <time>2012-01-27T10:52:43Z</time>
      </trkpt>
      <trkpt lat="47.33358" lon="4.98932">
        <ele>290.515</ele>
        <time>2012-01-27T10:52:54Z</time>
      </trkpt>
      <trkpt lat="47.33358" lon="4.98932">
        <ele>290.752</ele>
        <time>2012-01-27T10:53:05Z</time>
      </trkpt>
      <trkpt lat="47.33358" lon="4.98932">
        <ele>290.821</ele>
        <time>2012-01-27T10:53:16Z</time>
      </trkpt>
      <trkpt lat="47.33358" lon="4.98935">
        <ele>290.902</ele>
        <time>2012-01-27T10:53:27Z</time>
      </trkpt>
      <trkpt lat="47.33352" lon="4.98947">
        <ele>290.923</ele>
        <time>2012-01-27T10:53:38Z</time>
      </trkpt>
      <trkpt lat="47.33342" lon="4.9896">
        <ele>291.976</ele>
        <time>2012-01-27T10:53:49Z</time>
      </trkpt>
      <trkpt lat="47.33332" lon="4.98978">
        <ele>292.759</ele>
        <time>2012-01-27T10:54:00Z</time>
      </trkpt>
      <trkpt lat="47.3332" lon="4.98995">
        <ele>292.643</ele>
        <time>2012-01-27T10:54:11Z</time>
      </trkpt>
      <trkpt lat="47.3331" lon="4.99012">
        <ele>292.53</ele>
        <time>2012-01-27T10:54:22Z</time>
      </trkpt>
      <trkpt lat="47.333" lon="4.99032">
        <ele>291.932</ele>
        <time>2012-01-27T10:54:33Z</time>
      </trkpt>
      <trkpt lat="47.33288" lon="4.99052">
        <ele>289.321</ele>
        <time>2012-01-27T10:54:44Z</time>
      </trkpt>
      <trkpt lat="47.33278" lon="4.99073">
        <ele>287.902</ele>
        <time>2012-01-27T10:54:55Z</time>
      </trkpt>
      <trkpt lat="47.3327" lon="4.99105">
        <ele>287.1</ele>
        <time>2012-01-27T10:55:06Z</time>
      </trkpt>
      <trkpt lat="47.33262" lon="4.99127">
        <ele>286.379</ele>
        <time>2012-01-27T10:55:17Z</time>
      </trkpt>
      <trkpt lat="47.33258" lon="4.99152">
        <ele>286.049</ele>
        <time>2012-01-27T10:55:28Z</time>
      </trkpt>
      <trkpt lat="47.33255" lon="4.99177">
        <ele>285.192</ele>
        <time>2012-01-27T10:55:39Z</time>
      </trkpt>
      <trkpt lat="47.33248" lon="4.99197">
        <ele>284.682</ele>
        <time>2012-01-27T10:55:50Z</time>
      </trkpt>
      <trkpt lat="47.33235" lon="4.99215">
        <ele>285.63</ele>
        <time>2012-01-27T10:56:01Z</time>
      </trkpt>
      <trkpt lat="47.33222" lon="4.99228">
        <ele>284.091</ele>
        <time>2012-01-27T10:56:12Z</time>
      </trkpt>
      <trkpt lat="47.33213" lon="4.99237">
        <ele>282.465</ele>
        <time>2012-01-27T10:56:23Z</time>
      </trkpt>
      <trkpt lat="47.33198" lon="4.99252">
        <ele>282.367</ele>
        <time>2012-01-27T10:56:34Z</time>
      </trkpt>
      <trkpt lat="47.3319" lon="4.99273">
        <ele>280.753</ele>
        <time>2012-01-27T10:56:45Z</time>
      </trkpt>
      <trkpt lat="47.3318" lon="4.99297">
        <ele>278.498</ele>
        <time>2012-01-27T10:56:56Z</time>
      </trkpt>
      <trkpt lat="47.33168" lon="4.9932">
        <ele>279.103</ele>
        <time>2012-01-27T10:57:07Z</time>
      </trkpt>
      <trkpt lat="47.33162" lon="4.99343">
        <ele>277.732</ele>
        <time>2012-01-27T10:57:18Z</time>
      </trkpt>
      <trkpt lat="47.33153" lon="4.99358">
        <ele>276.05</ele>
        <time>2012-01-27T10:57:29Z</time>
      </trkpt>
      <trkpt lat="47.33145" lon="4.99372">
        <ele>274.964</ele>
        <time>2012-01-27T10:57:40Z</time>
      </trkpt>
      <trkpt lat="47.33138" lon="4.99393">
        <ele>273.393</ele>
        <time>2012-01-27T10:57:51Z</time>
      </trkpt>
      <trkpt lat="47.33133" lon="4.9941">
        <ele>271.29</ele>
        <time>2012-01-27T10:58:02Z</time>
      </trkpt>
      <trkpt lat="47.33122" lon="4.99415">
        <ele>269.858</ele>
        <time>2012-01-27T10:58:13Z</time>
      </trkpt>
      <trkpt lat="47.33112" lon="4.99413">
        <ele>270.459</ele>
        <time>2012-01-27T10:58:24Z</time>
      </trkpt>
      <trkpt lat="47.33103" lon="4.99408">
        <ele>269.245</ele>
        <time>2012-01-27T10:58:35Z</time>
      </trkpt>
      <trkpt lat="47.33103" lon="4.9941">
        <ele>269.233</ele>
        <time>2012-01-27T10:58:46Z</time>
      </trkpt>
      <trkpt lat="47.33103" lon="4.9941">
        <ele>269.233</ele>
        <time>2012-01-27T10:58:57Z</time>
      </trkpt>
      <trkpt lat="47.33103" lon="4.9941">
        <ele>269.138</ele>
        <time>2012-01-27T10:59:08Z</time>
      </trkpt>
      <trkpt lat="47.33102" lon="4.9941">
        <ele>269.588</ele>
        <time>2012-01-27T10:59:19Z</time>
      </trkpt>
      <trkpt lat="47.331" lon="4.99408">
        <ele>269.485</ele>
        <time>2012-01-27T10:59:30Z</time>
      </trkpt>
      <trkpt lat="47.33082" lon="4.99403">
        <ele>269.788</ele>
        <time>2012-01-27T10:59:41Z</time>
      </trkpt>
      <trkpt lat="47.33072" lon="4.99413">
        <ele>268.393</ele>
        <time>2012-01-27T10:59:52Z</time>
      </trkpt>
      <trkpt lat="47.33065" lon="4.99413">
        <ele>268.009</ele>
        <time>2012-01-27T11:00:03Z</time>
      </trkpt>
      <trkpt lat="47.33062" lon="4.99427">
        <ele>267.525</ele>
        <time>2012-01-27T11:00:14Z</time>
      </trkpt>
      <trkpt lat="47.33047" lon="4.99445">
        <ele>265.518</ele>
        <time>2012-01-27T11:00:25Z</time>
      </trkpt>
      <trkpt lat="47.3304" lon="4.99472">
        <ele>263.159</ele>
        <time>2012-01-27T11:00:36Z</time>
      </trkpt>
      <trkpt lat="47.33033" lon="4.9949">
        <ele>261.734</ele>
        <time>2012-01-27T11:00:47Z</time>
      </trkpt>
      <trkpt lat="47.33023" lon="4.9951">
        <ele>262.457</ele>
        <time>2012-01-27T11:00:58Z</time>
      </trkpt>
      <trkpt lat="47.33013" lon="4.9953">
        <ele>262.003</ele>
        <time>2012-01-27T11:01:09Z</time>
      </trkpt>
      <trkpt lat="47.33007" lon="4.9955">
        <ele>261.04</ele>
        <time>2012-01-27T11:01:20Z</time>
      </trkpt>
      <trkpt lat="47.32997" lon="4.99572">
        <ele>259.546</ele>
        <time>2012-01-27T11:01:31Z</time>
      </trkpt>
      <trkpt lat="47.32987" lon="4.99593">
        <ele>258.075</ele>
        <time>2012-01-27T11:01:42Z</time>
      </trkpt>
      <trkpt lat="47.3298" lon="4.99612">
        <ele>258.543</ele>
        <time>2012-01-27T11:01:53Z</time>
      </trkpt>
      <trkpt lat="47.32972" lon="4.99635">
        <ele>259.662</ele>
        <time>2012-01-27T11:02:04Z</time>
      </trkpt>
      <trkpt lat="47.32965" lon="4.99657">
        <ele>258.796</ele>
        <time>2012-01-27T11:02:15Z</time>
      </trkpt>
      <trkpt lat="47.32965" lon="4.9968">
        <ele>257.892</ele>
        <time>2012-01-27T11:02:26Z</time>
      </trkpt>
      <trkpt lat="47.32963" lon="4.99687">
        <ele>256.272</ele>
        <time>2012-01-27T11:02:37Z</time>
      </trkpt>
      <trkpt lat="47.32963" lon="4.99688">
        <ele>254.999</ele>
        <time>2012-01-27T11:02:48Z</time>
      </trkpt>
      <trkpt lat="47.32963" lon="4.99692">
        <ele>255.029</ele>
        <time>2012-01-27T11:02:59Z</time>
      </trkpt>
      <trkpt lat="47.3296" lon="4.99708">
        <ele>254.633</ele>
        <time>2012-01-27T11:03:10Z</time>
      </trkpt>
      <trkpt lat="47.32957" lon="4.99723">
        <ele>255.446</ele>
        <time>2012-01-27T11:03:21Z</time>
      </trkpt>
      <trkpt lat="47.32957" lon="4.99737">
        <ele>256.017</ele>
        <time>2012-01-27T11:03:32Z</time>
      </trkpt>
    </trkseg>
  </trk>
</gpx>